Time,TemperatureF,DewpointF,PressureIn,WindDirection,WindDirectionDegrees,WindSpeedMPH,WindSpeedGustMPH,Humidity,HourlyPrecipIn,Conditions,Clouds,dailyrainin,SoftwareType,DateUTC
2013-06-13 00:04:00,83.8,79.9,29.51,WSW,247,6.8,-999.0,88,-99.99,,,0.00,Acu-Link.com,2013-06-13 04:04:00,
2013-06-13 00:19:00,83.8,79.9,29.51,SW,225,6.3,-999.0,88,-99.99,,,0.01,Acu-Link.com,2013-06-13 04:19:00,
2013-06-13 00:35:00,83.7,80.1,29.51,WNW,292,10.9,-999.0,89,-99.99,,,0.01,Acu-Link.com,2013-06-13 04:35:00,
2013-06-13 00:51:00,83.3,82.7,29.51,ESE,112,3.7,-999.0,98,-99.99,,,0.01,Acu-Link.com,2013-06-13 04:51:00,
2013-06-13 01:06:00,82.8,82.2,29.50,WSW,247,7.3,-999.0,98,-99.99,,,0.01,Acu-Link.com,2013-06-13 05:06:00,
2013-06-13 01:22:00,82.6,82.0,29.50,NNW,337,6.8,-999.0,98,-99.99,,,0.01,Acu-Link.com,2013-06-13 05:22:00,
2013-06-13 01:37:00,82.4,81.8,29.51,West,270,6.3,-999.0,98,-99.99,,,0.01,Acu-Link.com,2013-06-13 05:37:00,
2013-06-13 01:53:00,82.4,81.8,29.50,West,270,8.9,-999.0,98,-99.99,,,0.01,Acu-Link.com,2013-06-13 05:53:00,
2013-06-13 02:08:00,82.2,81.6,29.51,WSW,247,7.3,-999.0,98,-99.99,,,0.01,Acu-Link.com,2013-06-13 06:08:00,
2013-06-13 02:23:00,82.2,81.6,29.51,WSW,247,13.0,-999.0,98,-99.99,,,0.01,Acu-Link.com,2013-06-13 06:23:00,
2013-06-13 02:39:00,82.0,81.4,29.51,West,270,8.9,-999.0,98,-99.99,,,0.01,Acu-Link.com,2013-06-13 06:39:00,
2013-06-13 02:55:00,82.0,81.4,29.50,NNW,337,9.9,-999.0,98,-99.99,,,0.01,Acu-Link.com,2013-06-13 06:55:00,
2013-06-13 03:10:00,81.5,80.9,29.51,West,270,15.5,-999.0,98,-99.99,,,0.01,Acu-Link.com,2013-06-13 07:10:00,
2013-06-13 03:25:00,81.1,80.5,29.48,SW,225,6.3,-999.0,98,-99.99,,,0.01,Acu-Link.com,2013-06-13 07:25:00,
2013-06-13 03:41:00,81.0,80.4,29.50,West,270,8.9,-999.0,98,-99.99,,,0.01,Acu-Link.com,2013-06-13 07:41:00,
2013-06-13 03:56:00,80.8,80.2,29.51,WSW,247,8.3,-999.0,98,-99.99,,,0.01,Acu-Link.com,2013-06-13 07:56:00,
2013-06-13 04:12:00,80.8,80.2,29.51,West,270,6.3,-999.0,98,-99.99,,,0.01,Acu-Link.com,2013-06-13 08:12:00,
2013-06-13 04:27:00,79.7,79.1,29.52,SSW,202,1.7,-999.0,98,-99.99,,,0.01,Acu-Link.com,2013-06-13 08:27:00,
2013-06-13 04:42:00,77.5,76.9,29.53,WSW,247,0.0,-999.0,98,-99.99,,,0.01,Acu-Link.com,2013-06-13 08:42:00,
2013-06-13 04:57:00,76.3,75.7,29.52,WSW,247,0.0,-999.0,98,-99.99,,,0.01,Acu-Link.com,2013-06-13 08:57:00,
2013-06-13 05:12:00,75.2,74.6,29.52,SSE,157,0.0,-999.0,98,-99.99,,,0.01,Acu-Link.com,2013-06-13 09:12:00,
2013-06-13 05:28:00,73.9,73.3,29.52,SW,225,0.0,-999.0,98,-99.99,,,0.01,Acu-Link.com,2013-06-13 09:28:00,
2013-06-13 05:43:00,72.9,72.3,29.51,ESE,112,0.0,-999.0,98,-99.99,,,0.01,Acu-Link.com,2013-06-13 09:43:00,
2013-06-13 05:58:00,72.1,71.5,29.49,NE,45,0.0,-999.0,98,-99.99,,,0.01,Acu-Link.com,2013-06-13 09:58:00,
2013-06-13 06:13:00,72.1,71.5,29.50,WNW,292,0.0,-999.0,98,-99.99,,,0.01,Acu-Link.com,2013-06-13 10:13:00,
2013-06-13 06:29:00,71.8,71.2,29.50,SE,135,0.0,-999.0,98,-99.99,,,0.01,Acu-Link.com,2013-06-13 10:29:00,
2013-06-13 06:44:00,71.8,71.2,29.50,NW,315,2.2,-999.0,98,-99.99,,,0.01,Acu-Link.com,2013-06-13 10:44:00,
2013-06-13 06:59:00,72.7,72.1,29.54,West,270,11.4,-999.0,98,-99.99,,,0.15,Acu-Link.com,2013-06-13 10:59:00,
2013-06-13 07:14:00,69.3,68.7,29.55,NE,45,2.7,-999.0,98,-99.99,,,0.34,Acu-Link.com,2013-06-13 11:14:00,
2013-06-13 07:29:00,68.4,67.8,29.56,NE,45,6.3,-999.0,98,-99.99,,,0.35,Acu-Link.com,2013-06-13 11:29:00,
2013-06-13 07:45:00,68.2,67.6,29.56,North,0,3.2,-999.0,98,-99.99,,,0.35,Acu-Link.com,2013-06-13 11:45:00,
2013-06-13 08:00:00,68.5,67.9,29.57,NNW,337,0.0,-999.0,98,-99.99,,,0.35,Acu-Link.com,2013-06-13 12:00:00,
2013-06-13 08:15:00,70.2,69.6,29.58,WNW,292,2.2,-999.0,98,-99.99,,,0.35,Acu-Link.com,2013-06-13 12:15:00,
2013-06-13 08:30:00,71.8,71.2,29.59,NNE,22,2.2,-999.0,98,-99.99,,,0.35,Acu-Link.com,2013-06-13 12:30:00,
2013-06-13 08:45:00,71.1,70.5,29.60,WNW,292,2.7,-999.0,98,-99.99,,,0.35,Acu-Link.com,2013-06-13 12:45:00,
2013-06-13 09:01:00,70.5,69.9,29.61,SE,135,4.2,-999.0,98,-99.99,,,0.35,Acu-Link.com,2013-06-13 13:01:00,
2013-06-13 09:16:00,69.8,69.2,29.61,NE,45,2.2,-999.0,98,-99.99,,,0.35,Acu-Link.com,2013-06-13 13:16:00,
2013-06-13 09:31:00,69.6,69.0,29.63,NNE,22,3.2,-999.0,98,-99.99,,,0.35,Acu-Link.com,2013-06-13 13:31:00,
2013-06-13 09:46:00,70.0,69.4,29.64,East,90,2.2,-999.0,98,-99.99,,,0.35,Acu-Link.com,2013-06-13 13:46:00,
2013-06-13 10:01:00,69.8,69.2,29.65,ENE,67,3.2,-999.0,98,-99.99,,,0.35,Acu-Link.com,2013-06-13 14:01:00,
2013-06-13 10:17:00,68.5,67.9,29.66,North,0,3.7,-999.0,98,-99.99,,,0.35,Acu-Link.com,2013-06-13 14:17:00,
2013-06-13 10:32:00,68.5,67.9,29.67,West,270,1.1,-999.0,98,-99.99,,,0.35,Acu-Link.com,2013-06-13 14:32:00,
2013-06-13 10:47:00,68.0,67.4,29.69,West,270,1.1,-999.0,98,-99.99,,,0.35,Acu-Link.com,2013-06-13 14:47:00,
2013-06-13 11:02:00,67.8,67.2,29.69,East,90,3.2,-999.0,98,-99.99,,,0.35,Acu-Link.com,2013-06-13 15:02:00,
2013-06-13 11:20:00,68.5,67.9,29.70,North,0,2.2,-999.0,98,-99.99,,,0.35,Acu-Link.com,2013-06-13 15:20:00,
2013-06-13 11:36:00,69.3,68.7,29.71,NNE,22,3.2,-999.0,98,-99.99,,,0.35,Acu-Link.com,2013-06-13 15:36:00,
2013-06-13 12:09:00,68.7,68.1,29.72,ESE,112,0.0,-999.0,98,-99.99,,,0.35,Acu-Link.com,2013-06-13 16:09:00,
2013-06-13 12:25:00,70.5,69.9,29.71,NNW,337,0.0,-999.0,98,-99.99,,,0.35,Acu-Link.com,2013-06-13 16:25:00,
2013-06-13 12:40:00,75.0,74.4,29.71,NE,45,0.0,-999.0,98,-99.99,,,0.35,Acu-Link.com,2013-06-13 16:40:00,
2013-06-13 12:56:00,73.9,73.3,29.73,NNW,337,2.7,-999.0,98,-99.99,,,0.35,Acu-Link.com,2013-06-13 16:56:00,
2013-06-13 13:12:00,76.1,72.3,29.73,NNE,22,2.2,-999.0,88,-99.99,,,0.35,Acu-Link.com,2013-06-13 17:12:00,
2013-06-13 13:28:00,77.2,69.8,29.74,East,90,0.0,-999.0,78,-99.99,,,0.35,Acu-Link.com,2013-06-13 17:28:00,
2013-06-13 13:43:00,77.7,70.7,29.74,WNW,292,0.0,-999.0,79,-99.99,,,0.35,Acu-Link.com,2013-06-13 17:43:00,
2013-06-13 13:59:00,77.7,69.1,29.75,West,270,0.0,-999.0,75,-99.99,,,0.35,Acu-Link.com,2013-06-13 17:59:00,
2013-06-13 14:14:00,78.3,63.3,29.74,NE,45,0.0,-999.0,60,-99.99,,,0.35,Acu-Link.com,2013-06-13 18:14:00,
2013-06-13 14:29:00,78.8,66.9,29.75,NNE,22,0.0,-999.0,67,-99.99,,,0.35,Acu-Link.com,2013-06-13 18:29:00,
2013-06-13 14:45:00,79.7,66.0,29.75,WNW,292,0.0,-999.0,63,-99.99,,,0.35,Acu-Link.com,2013-06-13 18:45:00,
2013-06-13 15:02:00,79.5,65.8,29.75,West,270,0.0,-999.0,63,-99.99,,,0.35,Acu-Link.com,2013-06-13 19:02:00,
2013-06-13 15:17:00,79.7,66.4,29.76,NNE,22,0.0,-999.0,64,-99.99,,,0.35,Acu-Link.com,2013-06-13 19:17:00,
2013-06-13 15:32:00,79.9,67.9,29.75,WNW,292,0.0,-999.0,67,-99.99,,,0.35,Acu-Link.com,2013-06-13 19:32:00,
2013-06-13 15:47:00,79.2,67.7,29.76,NE,45,0.0,-999.0,68,-99.99,,,0.35,Acu-Link.com,2013-06-13 19:47:00,
2013-06-13 16:03:00,79.5,67.1,29.76,NNE,22,0.0,-999.0,66,-99.99,,,0.35,Acu-Link.com,2013-06-13 20:03:00,
2013-06-13 16:18:00,80.1,66.8,29.76,NNW,337,3.7,-999.0,64,-99.99,,,0.35,Acu-Link.com,2013-06-13 20:18:00,
2013-06-13 16:35:00,78.6,64.9,29.76,West,270,0.0,-999.0,63,-99.99,,,0.35,Acu-Link.com,2013-06-13 20:35:00,
2013-06-13 16:50:00,79.0,63.4,29.77,NNE,22,0.0,-999.0,59,-99.99,,,0.35,Acu-Link.com,2013-06-13 20:50:00,
2013-06-13 17:06:00,79.0,64.8,29.78,North,0,4.2,-999.0,62,-99.99,,,0.35,Acu-Link.com,2013-06-13 21:06:00,
2013-06-13 17:22:00,78.8,62.8,29.77,North,0,0.0,-999.0,58,-99.99,,,0.35,Acu-Link.com,2013-06-13 21:22:00,
2013-06-13 17:40:00,79.7,62.6,29.77,NE,45,0.0,-999.0,56,-99.99,,,0.35,Acu-Link.com,2013-06-13 21:40:00,
2013-06-13 17:59:00,79.7,62.6,29.78,NE,45,0.0,-999.0,56,-99.99,,,0.35,Acu-Link.com,2013-06-13 21:59:00,
2013-06-13 18:26:00,81.1,60.7,29.78,NNE,22,0.0,-999.0,50,-99.99,,,0.35,Acu-Link.com,2013-06-13 22:26:00,
2013-06-13 18:41:00,80.8,61.5,29.78,NNE,22,2.2,-999.0,52,-99.99,,,0.35,Acu-Link.com,2013-06-13 22:41:00,
2013-06-13 18:57:00,80.8,61.5,29.79,NW,315,0.0,-999.0,52,-99.99,,,0.35,Acu-Link.com,2013-06-13 22:57:00,
2013-06-13 19:12:00,81.1,61.8,29.79,WNW,292,0.0,-999.0,52,-99.99,,,0.35,Acu-Link.com,2013-06-13 23:12:00,
2013-06-13 19:28:00,77.9,61.4,29.79,North,0,0.0,-999.0,57,-99.99,,,0.35,Acu-Link.com,2013-06-13 23:28:00,
2013-06-13 19:44:00,77.0,60.6,29.79,ENE,67,0.0,-999.0,57,-99.99,,,0.35,Acu-Link.com,2013-06-13 23:44:00,
2013-06-13 20:04:00,74.5,61.5,29.80,NE,45,0.0,-999.0,64,-99.99,,,0.35,Acu-Link.com,2013-06-14 00:04:00,
2013-06-13 20:27:00,71.2,61.3,29.81,NE,45,0.0,-999.0,71,-99.99,,,0.35,Acu-Link.com,2013-06-14 00:27:00,
2013-06-13 20:53:00,71.2,61.3,29.82,ESE,112,0.0,-999.0,71,-99.99,,,0.35,Acu-Link.com,2013-06-14 00:53:00,
2013-06-13 21:22:00,68.2,62.1,29.82,SSW,202,0.0,-999.0,81,-99.99,,,0.35,Acu-Link.com,2013-06-14 01:22:00,
2013-06-13 21:37:00,67.6,62.2,29.83,NNE,22,0.0,-999.0,83,-99.99,,,0.35,Acu-Link.com,2013-06-14 01:37:00,
2013-06-13 21:54:00,66.9,63.9,29.84,SSW,202,0.0,-999.0,90,-99.99,,,0.35,Acu-Link.com,2013-06-14 01:54:00,
2013-06-13 22:09:00,66.7,64.3,29.84,NNE,22,0.0,-999.0,92,-99.99,,,0.35,Acu-Link.com,2013-06-14 02:09:00,
2013-06-13 22:25:00,66.2,65.6,29.85,East,90,0.0,-999.0,98,-99.99,,,0.35,Acu-Link.com,2013-06-14 02:25:00,
2013-06-13 22:40:00,65.7,65.1,29.85,NNE,22,0.0,-999.0,98,-99.99,,,0.35,Acu-Link.com,2013-06-14 02:40:00,
2013-06-13 22:56:00,65.1,64.5,29.86,WNW,292,0.0,-999.0,98,-99.99,,,0.35,Acu-Link.com,2013-06-14 02:56:00,
2013-06-13 23:11:00,64.0,63.4,29.86,WNW,292,0.0,-999.0,98,-99.99,,,0.35,Acu-Link.com,2013-06-14 03:11:00,
2013-06-13 23:28:00,63.3,62.7,29.85,NW,315,0.0,-999.0,98,-99.99,,,0.35,Acu-Link.com,2013-06-14 03:28:00,
2013-06-13 23:43:00,63.5,62.9,29.85,NNE,22,0.0,-999.0,98,-99.99,,,0.35,Acu-Link.com,2013-06-14 03:43:00,